sensor_id;sensor_type;location;lat;lon;timestamp;P1;durP1;ratioP1;P2;durP2;ratioP2
14060;SDS011;7105;43.616;1.434;2023-02-11T00:01:19;31.03;;;19.40;;
14060;SDS011;7105;43.616;1.434;2023-02-11T00:03:53;32.33;;;20.13;;
14060;SDS011;7105;43.616;1.434;2023-02-11T00:06:19;28.10;;;18.60;;
14060;SDS011;7105;43.616;1.434;2023-02-11T00:08:45;29.67;;;19.30;;
14060;SDS011;7105;43.616;1.434;2023-02-11T00:11:11;26.83;;;18.97;;
14060;SDS011;7105;43.616;1.434;2023-02-11T00:13:42;25.07;;;18.27;;
14060;SDS011;7105;43.616;1.434;2023-02-11T00:16:10;30.20;;;19.80;;
14060;SDS011;7105;43.616;1.434;2023-02-11T00:18:38;28.23;;;18.13;;
14060;SDS011;7105;43.616;1.434;2023-02-11T00:21:07;31.53;;;19.07;;
14060;SDS011;7105;43.616;1.434;2023-02-11T00:23:34;29.80;;;19.17;;
14060;SDS011;7105;43.616;1.434;2023-02-11T00:26:00;30.07;;;19.90;;
14060;SDS011;7105;43.616;1.434;2023-02-11T00:28:26;30.27;;;18.80;;
14060;SDS011;7105;43.616;1.434;2023-02-11T00:30:58;27.17;;;18.67;;
14060;SDS011;7105;43.616;1.434;2023-02-11T00:33:26;29.53;;;18.63;;
14060;SDS011;7105;43.616;1.434;2023-02-11T00:35:52;29.60;;;20.30;;
14060;SDS011;7105;43.616;1.434;2023-02-11T00:38:18;29.87;;;18.90;;
14060;SDS011;7105;43.616;1.434;2023-02-11T00:40:43;28.53;;;18.93;;
14060;SDS011;7105;43.616;1.434;2023-02-11T00:43:09;30.03;;;18.90;;
14060;SDS011;7105;43.616;1.434;2023-02-11T00:45:35;27.60;;;18.77;;
14060;SDS011;7105;43.616;1.434;2023-02-11T00:48:00;28.73;;;19.87;;
14060;SDS011;7105;43.616;1.434;2023-02-11T00:50:26;27.87;;;19.83;;
14060;SDS011;7105;43.616;1.434;2023-02-11T00:52:52;31.07;;;20.30;;
14060;SDS011;7105;43.616;1.434;2023-02-11T00:55:17;26.93;;;19.10;;
14060;SDS011;7105;43.616;1.434;2023-02-11T00:57:43;32.93;;;20.17;;
14060;SDS011;7105;43.616;1.434;2023-02-11T01:00:10;30.03;;;19.60;;
14060;SDS011;7105;43.616;1.434;2023-02-11T01:02:37;29.90;;;20.23;;
14060;SDS011;7105;43.616;1.434;2023-02-11T01:05:03;29.20;;;20.27;;
14060;SDS011;7105;43.616;1.434;2023-02-11T01:07:30;32.50;;;20.20;;
14060;SDS011;7105;43.616;1.434;2023-02-11T01:09:57;31.67;;;21.67;;
14060;SDS011;7105;43.616;1.434;2023-02-11T01:12:23;36.37;;;20.90;;
14060;SDS011;7105;43.616;1.434;2023-02-11T01:14:49;33.37;;;21.63;;
14060;SDS011;7105;43.616;1.434;2023-02-11T01:17:15;33.57;;;21.77;;
14060;SDS011;7105;43.616;1.434;2023-02-11T01:19:41;33.60;;;22.20;;
14060;SDS011;7105;43.616;1.434;2023-02-11T01:22:07;33.43;;;23.40;;
14060;SDS011;7105;43.616;1.434;2023-02-11T01:24:32;31.97;;;22.50;;
14060;SDS011;7105;43.616;1.434;2023-02-11T01:26:58;36.23;;;23.20;;
14060;SDS011;7105;43.616;1.434;2023-02-11T01:29:24;31.93;;;21.33;;
14060;SDS011;7105;43.616;1.434;2023-02-11T01:31:49;31.50;;;21.47;;
14060;SDS011;7105;43.616;1.434;2023-02-11T01:34:16;32.93;;;21.67;;
14060;SDS011;7105;43.616;1.434;2023-02-11T01:36:42;34.97;;;20.87;;
14060;SDS011;7105;43.616;1.434;2023-02-11T01:39:07;32.60;;;22.03;;
14060;SDS011;7105;43.616;1.434;2023-02-11T01:41:33;28.90;;;21.07;;
14060;SDS011;7105;43.616;1.434;2023-02-11T01:46:50;35.07;;;20.93;;
14060;SDS011;7105;43.616;1.434;2023-02-11T01:49:37;29.27;;;20.37;;
14060;SDS011;7105;43.616;1.434;2023-02-11T01:52:17;33.33;;;21.00;;
14060;SDS011;7105;43.616;1.434;2023-02-11T01:54:51;30.40;;;19.57;;
14060;SDS011;7105;43.616;1.434;2023-02-11T01:57:41;32.20;;;21.07;;
14060;SDS011;7105;43.616;1.434;2023-02-11T02:02:41;30.80;;;20.67;;
14060;SDS011;7105;43.616;1.434;2023-02-11T02:05:39;34.53;;;21.13;;
14060;SDS011;7105;43.616;1.434;2023-02-11T02:08:39;29.83;;;20.17;;
14060;SDS011;7105;43.616;1.434;2023-02-11T02:11:26;32.10;;;21.33;;
14060;SDS011;7105;43.616;1.434;2023-02-11T02:13:51;32.27;;;20.60;;
14060;SDS011;7105;43.616;1.434;2023-02-11T02:16:18;29.57;;;19.37;;
14060;SDS011;7105;43.616;1.434;2023-02-11T02:18:58;34.03;;;21.60;;
14060;SDS011;7105;43.616;1.434;2023-02-11T02:27:28;30.80;;;19.57;;
14060;SDS011;7105;43.616;1.434;2023-02-11T02:30:23;28.43;;;19.13;;
14060;SDS011;7105;43.616;1.434;2023-02-11T02:38:33;31.27;;;18.50;;
14060;SDS011;7105;43.616;1.434;2023-02-11T02:41:22;27.23;;;18.47;;
14060;SDS011;7105;43.616;1.434;2023-02-11T02:43:52;27.47;;;17.73;;
14060;SDS011;7105;43.616;1.434;2023-02-11T02:46:23;25.43;;;17.50;;
14060;SDS011;7105;43.616;1.434;2023-02-11T02:48:54;26.00;;;16.97;;
14060;SDS011;7105;43.616;1.434;2023-02-11T02:57:27;27.83;;;17.23;;
14060;SDS011;7105;43.616;1.434;2023-02-11T03:02:33;28.27;;;15.97;;
14060;SDS011;7105;43.616;1.434;2023-02-11T03:05:11;23.60;;;16.30;;
14060;SDS011;7105;43.616;1.434;2023-02-11T03:07:44;26.23;;;17.00;;
14060;SDS011;7105;43.616;1.434;2023-02-11T03:10:51;26.43;;;17.57;;
14060;SDS011;7105;43.616;1.434;2023-02-11T03:13:16;26.23;;;16.73;;
14060;SDS011;7105;43.616;1.434;2023-02-11T03:15:45;24.27;;;17.30;;
14060;SDS011;7105;43.616;1.434;2023-02-11T03:18:15;24.53;;;16.67;;
14060;SDS011;7105;43.616;1.434;2023-02-11T03:20:44;25.40;;;15.87;;
14060;SDS011;7105;43.616;1.434;2023-02-11T03:23:18;25.67;;;16.37;;
14060;SDS011;7105;43.616;1.434;2023-02-11T03:25:54;22.77;;;16.23;;
14060;SDS011;7105;43.616;1.434;2023-02-11T03:33:25;25.33;;;16.27;;
14060;SDS011;7105;43.616;1.434;2023-02-11T03:35:55;26.00;;;17.50;;
14060;SDS011;7105;43.616;1.434;2023-02-11T03:38:34;24.70;;;16.60;;
14060;SDS011;7105;43.616;1.434;2023-02-11T03:41:03;27.53;;;17.80;;
14060;SDS011;7105;43.616;1.434;2023-02-11T03:45:57;23.40;;;16.67;;
14060;SDS011;7105;43.616;1.434;2023-02-11T03:48:24;24.40;;;16.97;;
14060;SDS011;7105;43.616;1.434;2023-02-11T03:50:54;27.60;;;17.43;;
14060;SDS011;7105;43.616;1.434;2023-02-11T03:53:23;28.63;;;17.77;;
14060;SDS011;7105;43.616;1.434;2023-02-11T03:55:49;24.73;;;15.60;;
14060;SDS011;7105;43.616;1.434;2023-02-11T03:58:18;26.00;;;15.00;;
14060;SDS011;7105;43.616;1.434;2023-02-11T04:00:44;25.07;;;16.60;;
14060;SDS011;7105;43.616;1.434;2023-02-11T04:03:10;24.83;;;15.80;;
14060;SDS011;7105;43.616;1.434;2023-02-11T04:05:37;27.00;;;17.40;;
14060;SDS011;7105;43.616;1.434;2023-02-11T04:08:03;23.90;;;16.63;;
14060;SDS011;7105;43.616;1.434;2023-02-11T04:10:29;23.07;;;16.40;;
14060;SDS011;7105;43.616;1.434;2023-02-11T04:12:57;30.63;;;17.23;;
14060;SDS011;7105;43.616;1.434;2023-02-11T04:15:23;24.17;;;16.37;;
14060;SDS011;7105;43.616;1.434;2023-02-11T04:17:49;27.27;;;15.90;;
14060;SDS011;7105;43.616;1.434;2023-02-11T04:20:15;26.13;;;16.70;;
14060;SDS011;7105;43.616;1.434;2023-02-11T04:22:41;25.87;;;17.10;;
14060;SDS011;7105;43.616;1.434;2023-02-11T04:25:06;27.27;;;17.30;;
14060;SDS011;7105;43.616;1.434;2023-02-11T04:27:33;27.40;;;16.97;;
14060;SDS011;7105;43.616;1.434;2023-02-11T04:29:59;25.63;;;16.60;;
14060;SDS011;7105;43.616;1.434;2023-02-11T04:32:25;24.80;;;14.80;;
14060;SDS011;7105;43.616;1.434;2023-02-11T04:34:50;24.57;;;16.20;;
14060;SDS011;7105;43.616;1.434;2023-02-11T04:37:16;24.20;;;16.20;;
14060;SDS011;7105;43.616;1.434;2023-02-11T04:39:42;21.80;;;15.03;;
14060;SDS011;7105;43.616;1.434;2023-02-11T04:42:07;23.47;;;15.20;;
14060;SDS011;7105;43.616;1.434;2023-02-11T04:44:33;21.37;;;15.27;;
14060;SDS011;7105;43.616;1.434;2023-02-11T04:46:59;22.70;;;15.03;;
14060;SDS011;7105;43.616;1.434;2023-02-11T04:49:24;25.33;;;15.43;;
14060;SDS011;7105;43.616;1.434;2023-02-11T04:51:50;26.13;;;15.37;;
14060;SDS011;7105;43.616;1.434;2023-02-11T04:54:16;25.03;;;15.77;;
14060;SDS011;7105;43.616;1.434;2023-02-11T04:56:42;25.23;;;14.93;;
14060;SDS011;7105;43.616;1.434;2023-02-11T04:59:07;23.83;;;15.83;;
14060;SDS011;7105;43.616;1.434;2023-02-11T05:01:33;22.93;;;15.57;;
14060;SDS011;7105;43.616;1.434;2023-02-11T05:03:59;22.47;;;15.27;;
14060;SDS011;7105;43.616;1.434;2023-02-11T05:06:25;22.10;;;14.50;;
14060;SDS011;7105;43.616;1.434;2023-02-11T05:08:50;21.53;;;13.73;;
14060;SDS011;7105;43.616;1.434;2023-02-11T05:11:18;21.03;;;14.00;;
14060;SDS011;7105;43.616;1.434;2023-02-11T05:13:46;23.37;;;14.73;;
14060;SDS011;7105;43.616;1.434;2023-02-11T05:16:12;25.83;;;14.20;;
14060;SDS011;7105;43.616;1.434;2023-02-11T05:18:38;23.70;;;13.87;;
14060;SDS011;7105;43.616;1.434;2023-02-11T05:21:09;23.23;;;13.87;;
14060;SDS011;7105;43.616;1.434;2023-02-11T05:23:39;23.80;;;14.83;;
14060;SDS011;7105;43.616;1.434;2023-02-11T05:26:06;23.80;;;14.80;;
14060;SDS011;7105;43.616;1.434;2023-02-11T05:28:32;21.60;;;14.37;;
14060;SDS011;7105;43.616;1.434;2023-02-11T05:30:59;28.87;;;14.77;;
14060;SDS011;7105;43.616;1.434;2023-02-11T05:33:28;23.23;;;14.40;;
14060;SDS011;7105;43.616;1.434;2023-02-11T05:36:12;22.23;;;14.20;;
14060;SDS011;7105;43.616;1.434;2023-02-11T05:38:38;22.83;;;14.20;;
14060;SDS011;7105;43.616;1.434;2023-02-11T05:41:04;24.13;;;14.77;;
14060;SDS011;7105;43.616;1.434;2023-02-11T05:43:31;28.67;;;16.47;;
14060;SDS011;7105;43.616;1.434;2023-02-11T05:45:58;23.60;;;15.37;;
14060;SDS011;7105;43.616;1.434;2023-02-11T05:48:24;27.13;;;15.30;;
14060;SDS011;7105;43.616;1.434;2023-02-11T05:50:50;22.30;;;15.10;;
14060;SDS011;7105;43.616;1.434;2023-02-11T05:53:15;23.07;;;14.73;;
14060;SDS011;7105;43.616;1.434;2023-02-11T05:55:41;24.23;;;15.30;;
14060;SDS011;7105;43.616;1.434;2023-02-11T05:58:07;23.40;;;14.40;;
14060;SDS011;7105;43.616;1.434;2023-02-11T06:00:33;21.53;;;14.17;;
14060;SDS011;7105;43.616;1.434;2023-02-11T06:02:59;25.37;;;14.50;;
14060;SDS011;7105;43.616;1.434;2023-02-11T06:05:29;27.53;;;15.63;;
14060;SDS011;7105;43.616;1.434;2023-02-11T06:07:55;25.10;;;14.90;;
14060;SDS011;7105;43.616;1.434;2023-02-11T06:10:21;23.80;;;15.77;;
14060;SDS011;7105;43.616;1.434;2023-02-11T06:12:47;23.53;;;14.63;;
14060;SDS011;7105;43.616;1.434;2023-02-11T06:15:12;22.67;;;14.60;;
14060;SDS011;7105;43.616;1.434;2023-02-11T06:17:38;27.00;;;14.90;;
14060;SDS011;7105;43.616;1.434;2023-02-11T06:20:05;25.17;;;16.20;;
14060;SDS011;7105;43.616;1.434;2023-02-11T06:22:32;23.53;;;15.10;;
14060;SDS011;7105;43.616;1.434;2023-02-11T06:24:58;23.37;;;15.23;;
14060;SDS011;7105;43.616;1.434;2023-02-11T06:27:24;26.37;;;15.53;;
14060;SDS011;7105;43.616;1.434;2023-02-11T06:29:49;24.23;;;14.63;;
14060;SDS011;7105;43.616;1.434;2023-02-11T06:32:16;28.07;;;15.50;;
14060;SDS011;7105;43.616;1.434;2023-02-11T06:34:42;27.83;;;15.70;;
14060;SDS011;7105;43.616;1.434;2023-02-11T06:37:08;25.10;;;14.57;;
14060;SDS011;7105;43.616;1.434;2023-02-11T06:39:34;22.53;;;14.23;;
14060;SDS011;7105;43.616;1.434;2023-02-11T06:41:59;28.30;;;15.33;;
14060;SDS011;7105;43.616;1.434;2023-02-11T06:44:25;27.60;;;16.43;;
14060;SDS011;7105;43.616;1.434;2023-02-11T06:46:50;27.80;;;16.40;;
14060;SDS011;7105;43.616;1.434;2023-02-11T06:49:16;26.20;;;16.17;;
14060;SDS011;7105;43.616;1.434;2023-02-11T06:51:42;25.27;;;14.13;;
14060;SDS011;7105;43.616;1.434;2023-02-11T06:54:07;27.70;;;15.97;;
14060;SDS011;7105;43.616;1.434;2023-02-11T06:56:33;26.03;;;15.80;;
14060;SDS011;7105;43.616;1.434;2023-02-11T06:58:59;27.67;;;15.47;;
14060;SDS011;7105;43.616;1.434;2023-02-11T07:01:25;28.37;;;15.63;;
14060;SDS011;7105;43.616;1.434;2023-02-11T07:03:52;29.87;;;16.83;;
14060;SDS011;7105;43.616;1.434;2023-02-11T07:06:19;24.20;;;15.13;;
14060;SDS011;7105;43.616;1.434;2023-02-11T07:08:46;24.30;;;15.33;;
14060;SDS011;7105;43.616;1.434;2023-02-11T07:11:16;21.80;;;14.80;;
14060;SDS011;7105;43.616;1.434;2023-02-11T07:13:45;27.87;;;16.43;;
14060;SDS011;7105;43.616;1.434;2023-02-11T07:16:13;22.90;;;14.17;;
14060;SDS011;7105;43.616;1.434;2023-02-11T07:18:40;19.97;;;10.70;;
14060;SDS011;7105;43.616;1.434;2023-02-11T07:21:10;14.73;;;10.40;;
14060;SDS011;7105;43.616;1.434;2023-02-11T07:23:36;14.33;;;9.73;;
14060;SDS011;7105;43.616;1.434;2023-02-11T07:26:06;16.53;;;10.13;;
14060;SDS011;7105;43.616;1.434;2023-02-11T07:28:35;17.40;;;10.07;;
14060;SDS011;7105;43.616;1.434;2023-02-11T07:31:06;17.10;;;9.83;;
14060;SDS011;7105;43.616;1.434;2023-02-11T07:33:32;16.30;;;9.77;;
14060;SDS011;7105;43.616;1.434;2023-02-11T07:36:00;19.27;;;10.50;;
14060;SDS011;7105;43.616;1.434;2023-02-11T07:38:27;18.50;;;11.10;;
14060;SDS011;7105;43.616;1.434;2023-02-11T07:40:52;17.60;;;11.13;;
14060;SDS011;7105;43.616;1.434;2023-02-11T07:43:18;20.83;;;12.20;;
14060;SDS011;7105;43.616;1.434;2023-02-11T07:45:44;17.27;;;10.90;;
14060;SDS011;7105;43.616;1.434;2023-02-11T07:48:09;19.00;;;11.33;;
14060;SDS011;7105;43.616;1.434;2023-02-11T07:50:35;18.27;;;10.93;;
14060;SDS011;7105;43.616;1.434;2023-02-11T07:53:01;19.17;;;11.07;;
14060;SDS011;7105;43.616;1.434;2023-02-11T07:55:27;19.83;;;12.77;;
14060;SDS011;7105;43.616;1.434;2023-02-11T07:57:53;19.37;;;11.97;;
14060;SDS011;7105;43.616;1.434;2023-02-11T08:00:19;20.00;;;12.57;;
14060;SDS011;7105;43.616;1.434;2023-02-11T08:02:44;22.07;;;13.33;;
14060;SDS011;7105;43.616;1.434;2023-02-11T08:05:10;28.97;;;18.07;;
14060;SDS011;7105;43.616;1.434;2023-02-11T08:07:35;30.77;;;18.30;;
14060;SDS011;7105;43.616;1.434;2023-02-11T08:10:01;36.50;;;22.37;;
14060;SDS011;7105;43.616;1.434;2023-02-11T08:12:27;36.60;;;22.20;;
14060;SDS011;7105;43.616;1.434;2023-02-11T08:14:53;36.23;;;21.97;;
14060;SDS011;7105;43.616;1.434;2023-02-11T08:17:19;34.60;;;21.10;;
14060;SDS011;7105;43.616;1.434;2023-02-11T08:19:44;37.83;;;22.13;;
14060;SDS011;7105;43.616;1.434;2023-02-11T08:22:10;32.70;;;18.33;;
14060;SDS011;7105;43.616;1.434;2023-02-11T08:24:36;34.03;;;20.00;;
14060;SDS011;7105;43.616;1.434;2023-02-11T08:27:02;31.23;;;19.27;;
14060;SDS011;7105;43.616;1.434;2023-02-11T08:29:28;27.87;;;19.17;;
14060;SDS011;7105;43.616;1.434;2023-02-11T08:31:53;31.07;;;20.97;;
14060;SDS011;7105;43.616;1.434;2023-02-11T08:34:19;30.03;;;19.93;;
14060;SDS011;7105;43.616;1.434;2023-02-11T08:36:46;29.97;;;21.10;;
14060;SDS011;7105;43.616;1.434;2023-02-11T08:39:21;28.10;;;20.70;;
14060;SDS011;7105;43.616;1.434;2023-02-11T08:41:48;26.97;;;20.77;;
14060;SDS011;7105;43.616;1.434;2023-02-11T08:44:16;30.77;;;22.70;;
14060;SDS011;7105;43.616;1.434;2023-02-11T08:46:42;26.60;;;19.83;;
14060;SDS011;7105;43.616;1.434;2023-02-11T08:49:08;25.97;;;19.97;;
14060;SDS011;7105;43.616;1.434;2023-02-11T08:51:34;29.17;;;21.97;;
14060;SDS011;7105;43.616;1.434;2023-02-11T08:54:00;26.67;;;20.20;;
14060;SDS011;7105;43.616;1.434;2023-02-11T08:56:26;24.80;;;20.67;;
14060;SDS011;7105;43.616;1.434;2023-02-11T08:58:54;26.37;;;21.03;;
14060;SDS011;7105;43.616;1.434;2023-02-11T09:01:24;31.07;;;22.67;;
14060;SDS011;7105;43.616;1.434;2023-02-11T09:03:52;29.03;;;22.27;;
14060;SDS011;7105;43.616;1.434;2023-02-11T09:06:18;30.93;;;22.00;;
14060;SDS011;7105;43.616;1.434;2023-02-11T09:08:45;33.83;;;22.27;;
14060;SDS011;7105;43.616;1.434;2023-02-11T09:11:13;31.97;;;21.73;;
14060;SDS011;7105;43.616;1.434;2023-02-11T09:13:40;28.87;;;21.80;;
14060;SDS011;7105;43.616;1.434;2023-02-11T09:16:07;32.50;;;22.23;;
14060;SDS011;7105;43.616;1.434;2023-02-11T09:18:33;29.93;;;21.97;;
14060;SDS011;7105;43.616;1.434;2023-02-11T09:21:02;36.23;;;26.37;;
14060;SDS011;7105;43.616;1.434;2023-02-11T09:23:29;28.37;;;22.17;;
14060;SDS011;7105;43.616;1.434;2023-02-11T09:25:58;27.40;;;21.00;;
14060;SDS011;7105;43.616;1.434;2023-02-11T09:28:53;27.13;;;20.33;;
14060;SDS011;7105;43.616;1.434;2023-02-11T09:31:20;27.73;;;20.80;;
14060;SDS011;7105;43.616;1.434;2023-02-11T09:33:49;30.00;;;21.53;;
14060;SDS011;7105;43.616;1.434;2023-02-11T09:36:17;24.33;;;19.37;;
14060;SDS011;7105;43.616;1.434;2023-02-11T09:38:45;24.93;;;18.23;;
14060;SDS011;7105;43.616;1.434;2023-02-11T09:41:16;22.20;;;17.00;;
14060;SDS011;7105;43.616;1.434;2023-02-11T09:44:15;22.63;;;17.07;;
14060;SDS011;7105;43.616;1.434;2023-02-11T09:46:57;24.17;;;16.43;;
14060;SDS011;7105;43.616;1.434;2023-02-11T09:49:45;22.90;;;16.50;;
14060;SDS011;7105;43.616;1.434;2023-02-11T09:52:17;19.37;;;13.17;;
14060;SDS011;7105;43.616;1.434;2023-02-11T09:54:53;18.27;;;12.23;;
14060;SDS011;7105;43.616;1.434;2023-02-11T09:57:28;17.40;;;12.37;;
14060;SDS011;7105;43.616;1.434;2023-02-11T09:59:58;18.80;;;13.33;;
14060;SDS011;7105;43.616;1.434;2023-02-11T10:05:31;19.23;;;13.63;;
14060;SDS011;7105;43.616;1.434;2023-02-11T10:10:59;16.03;;;12.10;;
14060;SDS011;7105;43.616;1.434;2023-02-11T10:13:48;19.93;;;13.63;;
14060;SDS011;7105;43.616;1.434;2023-02-11T10:24:36;17.20;;;12.70;;
14060;SDS011;7105;43.616;1.434;2023-02-11T10:27:11;17.50;;;13.17;;
14060;SDS011;7105;43.616;1.434;2023-02-11T10:29:43;22.57;;;13.40;;
14060;SDS011;7105;43.616;1.434;2023-02-11T10:32:23;20.70;;;13.97;;
14060;SDS011;7105;43.616;1.434;2023-02-11T10:34:59;19.93;;;14.37;;
14060;SDS011;7105;43.616;1.434;2023-02-11T10:37:28;18.67;;;13.50;;
14060;SDS011;7105;43.616;1.434;2023-02-11T10:39:54;19.83;;;13.43;;
14060;SDS011;7105;43.616;1.434;2023-02-11T10:42:20;19.27;;;12.90;;
14060;SDS011;7105;43.616;1.434;2023-02-11T10:47:27;22.00;;;14.00;;
14060;SDS011;7105;43.616;1.434;2023-02-11T10:49:56;20.97;;;13.87;;
14060;SDS011;7105;43.616;1.434;2023-02-11T10:52:27;19.93;;;14.20;;
14060;SDS011;7105;43.616;1.434;2023-02-11T10:57:40;20.13;;;14.67;;
14060;SDS011;7105;43.616;1.434;2023-02-11T11:02:51;18.97;;;14.70;;
14060;SDS011;7105;43.616;1.434;2023-02-11T11:05:56;21.10;;;13.10;;
14060;SDS011;7105;43.616;1.434;2023-02-11T11:08:19;16.80;;;13.20;;
14060;SDS011;7105;43.616;1.434;2023-02-11T11:11:02;17.70;;;12.90;;
14060;SDS011;7105;43.616;1.434;2023-02-11T11:13:37;25.17;;;12.83;;
14060;SDS011;7105;43.616;1.434;2023-02-11T11:16:19;18.13;;;12.40;;
14060;SDS011;7105;43.616;1.434;2023-02-11T11:24:08;18.67;;;12.07;;
14060;SDS011;7105;43.616;1.434;2023-02-11T11:27:02;18.17;;;11.90;;
14060;SDS011;7105;43.616;1.434;2023-02-11T11:29:36;13.70;;;8.83;;
14060;SDS011;7105;43.616;1.434;2023-02-11T11:34:50;14.50;;;10.60;;
14060;SDS011;7105;43.616;1.434;2023-02-11T11:37:24;17.70;;;11.70;;
14060;SDS011;7105;43.616;1.434;2023-02-11T11:39:56;13.73;;;10.17;;
14060;SDS011;7105;43.616;1.434;2023-02-11T11:42:35;16.57;;;11.13;;
14060;SDS011;7105;43.616;1.434;2023-02-11T11:45:17;17.10;;;11.53;;
14060;SDS011;7105;43.616;1.434;2023-02-11T11:50:58;16.07;;;12.07;;
14060;SDS011;7105;43.616;1.434;2023-02-11T11:53:30;17.77;;;11.83;;
14060;SDS011;7105;43.616;1.434;2023-02-11T11:56:26;19.33;;;11.50;;
14060;SDS011;7105;43.616;1.434;2023-02-11T11:59:02;16.00;;;11.17;;
14060;SDS011;7105;43.616;1.434;2023-02-11T12:01:40;21.40;;;12.60;;
14060;SDS011;7105;43.616;1.434;2023-02-11T12:23:35;17.47;;;12.80;;
14060;SDS011;7105;43.616;1.434;2023-02-11T12:40:44;20.40;;;12.50;;
14060;SDS011;7105;43.616;1.434;2023-02-11T12:43:27;17.20;;;12.30;;
14060;SDS011;7105;43.616;1.434;2023-02-11T12:49:37;18.60;;;11.63;;
14060;SDS011;7105;43.616;1.434;2023-02-11T12:54:48;16.30;;;12.03;;
14060;SDS011;7105;43.616;1.434;2023-02-11T12:57:25;15.43;;;10.97;;
14060;SDS011;7105;43.616;1.434;2023-02-11T13:00:03;17.63;;;11.43;;
14060;SDS011;7105;43.616;1.434;2023-02-11T13:02:56;14.30;;;10.47;;
14060;SDS011;7105;43.616;1.434;2023-02-11T13:08:14;14.00;;;10.77;;
14060;SDS011;7105;43.616;1.434;2023-02-11T13:10:47;12.77;;;9.57;;
14060;SDS011;7105;43.616;1.434;2023-02-11T13:13:21;16.07;;;10.40;;
14060;SDS011;7105;43.616;1.434;2023-02-11T13:15:53;14.33;;;10.53;;
14060;SDS011;7105;43.616;1.434;2023-02-11T13:23:40;16.87;;;11.53;;
14060;SDS011;7105;43.616;1.434;2023-02-11T13:28:57;15.93;;;10.40;;
14060;SDS011;7105;43.616;1.434;2023-02-11T13:31:40;17.93;;;10.27;;
14060;SDS011;7105;43.616;1.434;2023-02-11T13:37:05;16.43;;;10.80;;
14060;SDS011;7105;43.616;1.434;2023-02-11T13:39:54;15.67;;;11.20;;
14060;SDS011;7105;43.616;1.434;2023-02-11T13:42:29;17.13;;;10.90;;
14060;SDS011;7105;43.616;1.434;2023-02-11T13:44:58;16.50;;;11.57;;
14060;SDS011;7105;43.616;1.434;2023-02-11T13:47:31;16.93;;;11.73;;
14060;SDS011;7105;43.616;1.434;2023-02-11T13:49:59;15.03;;;10.53;;
14060;SDS011;7105;43.616;1.434;2023-02-11T13:52:30;16.57;;;11.47;;
14060;SDS011;7105;43.616;1.434;2023-02-11T13:55:19;18.13;;;12.33;;
14060;SDS011;7105;43.616;1.434;2023-02-11T13:58:14;16.07;;;11.17;;
14060;SDS011;7105;43.616;1.434;2023-02-11T14:03:16;14.87;;;10.73;;
14060;SDS011;7105;43.616;1.434;2023-02-11T14:09:36;15.17;;;10.80;;
14060;SDS011;7105;43.616;1.434;2023-02-11T14:14:17;12.67;;;9.87;;
14060;SDS011;7105;43.616;1.434;2023-02-11T14:19:33;15.17;;;11.00;;
14060;SDS011;7105;43.616;1.434;2023-02-11T14:22:04;14.97;;;10.97;;
14060;SDS011;7105;43.616;1.434;2023-02-11T14:29:58;14.60;;;10.17;;
14060;SDS011;7105;43.616;1.434;2023-02-11T14:34:55;13.83;;;9.93;;
14060;SDS011;7105;43.616;1.434;2023-02-11T14:40:16;14.63;;;10.53;;
14060;SDS011;7105;43.616;1.434;2023-02-11T14:42:46;13.77;;;10.90;;
14060;SDS011;7105;43.616;1.434;2023-02-11T14:45:16;13.67;;;10.53;;
14060;SDS011;7105;43.616;1.434;2023-02-11T14:47:50;14.30;;;9.47;;
14060;SDS011;7105;43.616;1.434;2023-02-11T14:50:42;13.90;;;10.67;;
14060;SDS011;7105;43.616;1.434;2023-02-11T14:53:19;12.07;;;9.73;;
14060;SDS011;7105;43.616;1.434;2023-02-11T14:55:48;13.07;;;10.10;;
14060;SDS011;7105;43.616;1.434;2023-02-11T14:58:23;13.47;;;10.13;;
14060;SDS011;7105;43.616;1.434;2023-02-11T15:00:55;15.13;;;9.77;;
14060;SDS011;7105;43.616;1.434;2023-02-11T15:03:30;14.00;;;9.87;;
14060;SDS011;7105;43.616;1.434;2023-02-11T15:05:59;14.10;;;9.60;;
14060;SDS011;7105;43.616;1.434;2023-02-11T15:08:29;16.77;;;10.13;;
14060;SDS011;7105;43.616;1.434;2023-02-11T15:10:57;13.10;;;9.73;;
14060;SDS011;7105;43.616;1.434;2023-02-11T15:13:26;10.20;;;9.07;;
14060;SDS011;7105;43.616;1.434;2023-02-11T15:15:57;10.83;;;8.63;;
14060;SDS011;7105;43.616;1.434;2023-02-11T15:18:34;11.10;;;8.50;;
14060;SDS011;7105;43.616;1.434;2023-02-11T15:21:03;14.40;;;9.23;;
14060;SDS011;7105;43.616;1.434;2023-02-11T15:23:30;11.93;;;8.37;;
14060;SDS011;7105;43.616;1.434;2023-02-11T15:25:56;14.93;;;8.60;;
14060;SDS011;7105;43.616;1.434;2023-02-11T15:28:28;11.63;;;8.13;;
14060;SDS011;7105;43.616;1.434;2023-02-11T15:31:00;10.50;;;8.33;;
14060;SDS011;7105;43.616;1.434;2023-02-11T15:33:28;9.87;;;7.90;;
14060;SDS011;7105;43.616;1.434;2023-02-11T15:35:56;10.63;;;7.37;;
14060;SDS011;7105;43.616;1.434;2023-02-11T15:38:24;13.13;;;7.60;;
14060;SDS011;7105;43.616;1.434;2023-02-11T15:40:50;10.37;;;7.57;;
14060;SDS011;7105;43.616;1.434;2023-02-11T15:43:44;9.70;;;7.80;;
14060;SDS011;7105;43.616;1.434;2023-02-11T15:46:11;11.13;;;8.17;;
14060;SDS011;7105;43.616;1.434;2023-02-11T15:48:49;10.73;;;7.63;;
14060;SDS011;7105;43.616;1.434;2023-02-11T15:53:53;11.17;;;7.53;;
14060;SDS011;7105;43.616;1.434;2023-02-11T15:56:29;11.10;;;8.43;;
14060;SDS011;7105;43.616;1.434;2023-02-11T15:59:09;9.33;;;7.97;;
14060;SDS011;7105;43.616;1.434;2023-02-11T16:01:49;13.03;;;7.87;;
14060;SDS011;7105;43.616;1.434;2023-02-11T16:04:20;12.83;;;7.97;;
14060;SDS011;7105;43.616;1.434;2023-02-11T16:06:48;11.70;;;8.20;;
14060;SDS011;7105;43.616;1.434;2023-02-11T16:17:03;11.20;;;8.27;;
14060;SDS011;7105;43.616;1.434;2023-02-11T16:19:30;9.83;;;7.93;;
14060;SDS011;7105;43.616;1.434;2023-02-11T16:21:57;12.40;;;8.63;;
14060;SDS011;7105;43.616;1.434;2023-02-11T16:24:27;9.77;;;8.03;;
14060;SDS011;7105;43.616;1.434;2023-02-11T16:26:59;10.27;;;7.73;;
14060;SDS011;7105;43.616;1.434;2023-02-11T16:29:31;11.73;;;8.00;;
14060;SDS011;7105;43.616;1.434;2023-02-11T16:32:04;13.10;;;8.20;;
14060;SDS011;7105;43.616;1.434;2023-02-11T16:34:39;10.90;;;8.87;;
14060;SDS011;7105;43.616;1.434;2023-02-11T16:37:05;12.67;;;8.60;;
14060;SDS011;7105;43.616;1.434;2023-02-11T16:39:31;13.50;;;9.40;;
14060;SDS011;7105;43.616;1.434;2023-02-11T16:41:57;11.33;;;8.80;;
14060;SDS011;7105;43.616;1.434;2023-02-11T16:44:24;11.80;;;8.53;;
14060;SDS011;7105;43.616;1.434;2023-02-11T16:46:50;12.30;;;9.20;;
14060;SDS011;7105;43.616;1.434;2023-02-11T16:49:19;14.73;;;9.03;;
14060;SDS011;7105;43.616;1.434;2023-02-11T16:51:54;12.67;;;9.17;;
14060;SDS011;7105;43.616;1.434;2023-02-11T16:54:25;14.23;;;9.63;;
14060;SDS011;7105;43.616;1.434;2023-02-11T16:56:51;14.17;;;9.60;;
14060;SDS011;7105;43.616;1.434;2023-02-11T16:59:17;11.60;;;9.40;;
14060;SDS011;7105;43.616;1.434;2023-02-11T17:01:43;12.50;;;8.90;;
14060;SDS011;7105;43.616;1.434;2023-02-11T17:04:22;13.17;;;9.20;;
14060;SDS011;7105;43.616;1.434;2023-02-11T17:06:50;14.17;;;8.97;;
14060;SDS011;7105;43.616;1.434;2023-02-11T17:09:17;14.27;;;8.87;;
14060;SDS011;7105;43.616;1.434;2023-02-11T17:11:44;16.97;;;10.63;;
14060;SDS011;7105;43.616;1.434;2023-02-11T17:14:12;15.03;;;9.83;;
14060;SDS011;7105;43.616;1.434;2023-02-11T17:16:38;16.50;;;10.47;;
14060;SDS011;7105;43.616;1.434;2023-02-11T17:19:04;18.37;;;10.50;;
14060;SDS011;7105;43.616;1.434;2023-02-11T17:21:33;15.40;;;9.07;;
14060;SDS011;7105;43.616;1.434;2023-02-11T17:23:59;13.80;;;10.23;;
14060;SDS011;7105;43.616;1.434;2023-02-11T17:26:24;15.27;;;9.50;;